sensor_id;sensor_type;location;lat;lon;timestamp;P1;durP1;ratioP1;P2;durP2;ratioP2
21554;SDS011;10938;44.794;-0.676;2023-05-10T00:01:37;11.65;;;2.55;;
21554;SDS011;10938;44.794;-0.676;2023-05-10T00:04:02;16.58;;;2.97;;
21554;SDS011;10938;44.794;-0.676;2023-05-10T00:06:27;14.03;;;2.87;;
21554;SDS011;10938;44.794;-0.676;2023-05-10T00:08:53;17.30;;;2.67;;
21554;SDS011;10938;44.794;-0.676;2023-05-10T00:11:18;14.60;;;3.33;;
21554;SDS011;10938;44.794;-0.676;2023-05-10T00:13:43;16.37;;;2.83;;
21554;SDS011;10938;44.794;-0.676;2023-05-10T00:16:08;11.38;;;2.47;;
21554;SDS011;10938;44.794;-0.676;2023-05-10T00:18:34;13.80;;;2.70;;
21554;SDS011;10938;44.794;-0.676;2023-05-10T00:21:00;17.13;;;3.05;;
21554;SDS011;10938;44.794;-0.676;2023-05-10T00:23:25;12.50;;;2.53;;
21554;SDS011;10938;44.794;-0.676;2023-05-10T00:25:50;17.20;;;2.72;;
21554;SDS011;10938;44.794;-0.676;2023-05-10T00:28:16;16.90;;;3.28;;
21554;SDS011;10938;44.794;-0.676;2023-05-10T00:30:41;12.27;;;2.30;;
21554;SDS011;10938;44.794;-0.676;2023-05-10T00:33:06;13.60;;;2.10;;
21554;SDS011;10938;44.794;-0.676;2023-05-10T00:35:31;13.53;;;2.37;;
21554;SDS011;10938;44.794;-0.676;2023-05-10T00:37:57;9.88;;;2.20;;
21554;SDS011;10938;44.794;-0.676;2023-05-10T00:40:22;14.55;;;2.42;;
21554;SDS011;10938;44.794;-0.676;2023-05-10T00:42:48;12.45;;;2.42;;
21554;SDS011;10938;44.794;-0.676;2023-05-10T00:45:13;10.83;;;2.20;;
21554;SDS011;10938;44.794;-0.676;2023-05-10T00:47:38;14.87;;;2.60;;
21554;SDS011;10938;44.794;-0.676;2023-05-10T00:50:04;11.73;;;2.10;;
21554;SDS011;10938;44.794;-0.676;2023-05-10T00:52:30;17.05;;;3.15;;
21554;SDS011;10938;44.794;-0.676;2023-05-10T00:54:55;8.73;;;1.80;;
21554;SDS011;10938;44.794;-0.676;2023-05-10T00:57:21;12.00;;;2.25;;
21554;SDS011;10938;44.794;-0.676;2023-05-10T00:59:47;15.55;;;2.40;;
21554;SDS011;10938;44.794;-0.676;2023-05-10T01:05:17;10.85;;;2.20;;
21554;SDS011;10938;44.794;-0.676;2023-05-10T01:07:43;8.68;;;2.25;;
21554;SDS011;10938;44.794;-0.676;2023-05-10T01:10:08;10.10;;;2.08;;
21554;SDS011;10938;44.794;-0.676;2023-05-10T01:12:35;12.57;;;2.30;;
21554;SDS011;10938;44.794;-0.676;2023-05-10T01:15:01;14.40;;;2.97;;
21554;SDS011;10938;44.794;-0.676;2023-05-10T01:17:27;13.75;;;2.63;;
21554;SDS011;10938;44.794;-0.676;2023-05-10T01:19:52;13.82;;;2.90;;
21554;SDS011;10938;44.794;-0.676;2023-05-10T01:30:05;15.30;;;2.78;;
21554;SDS011;10938;44.794;-0.676;2023-05-10T01:37:28;7.38;;;1.90;;
21554;SDS011;10938;44.794;-0.676;2023-05-10T01:40:03;9.77;;;2.05;;
21554;SDS011;10938;44.794;-0.676;2023-05-10T01:42:36;11.05;;;2.47;;
21554;SDS011;10938;44.794;-0.676;2023-05-10T01:47:37;8.30;;;2.28;;
21554;SDS011;10938;44.794;-0.676;2023-05-10T01:50:04;13.40;;;2.70;;
21554;SDS011;10938;44.794;-0.676;2023-05-10T01:52:32;7.43;;;2.30;;
21554;SDS011;10938;44.794;-0.676;2023-05-10T01:55:08;9.48;;;2.20;;
21554;SDS011;10938;44.794;-0.676;2023-05-10T01:59:59;9.27;;;2.00;;
21554;SDS011;10938;44.794;-0.676;2023-05-10T02:02:26;10.75;;;2.72;;
21554;SDS011;10938;44.794;-0.676;2023-05-10T02:04:53;9.60;;;2.42;;
21554;SDS011;10938;44.794;-0.676;2023-05-10T02:07:21;8.57;;;1.52;;
21554;SDS011;10938;44.794;-0.676;2023-05-10T02:09:48;9.70;;;2.42;;
21554;SDS011;10938;44.794;-0.676;2023-05-10T02:12:13;12.55;;;2.60;;
21554;SDS011;10938;44.794;-0.676;2023-05-10T02:14:42;13.65;;;1.95;;
21554;SDS011;10938;44.794;-0.676;2023-05-10T02:17:07;12.82;;;2.60;;
21554;SDS011;10938;44.794;-0.676;2023-05-10T02:19:34;13.85;;;2.60;;
21554;SDS011;10938;44.794;-0.676;2023-05-10T02:22:01;11.52;;;2.67;;
21554;SDS011;10938;44.794;-0.676;2023-05-10T02:24:28;23.52;;;3.25;;
21554;SDS011;10938;44.794;-0.676;2023-05-10T02:26:53;9.23;;;2.55;;
21554;SDS011;10938;44.794;-0.676;2023-05-10T02:29:21;12.88;;;2.72;;
21554;SDS011;10938;44.794;-0.676;2023-05-10T02:31:48;12.15;;;2.22;;
21554;SDS011;10938;44.794;-0.676;2023-05-10T02:34:15;10.23;;;2.05;;
21554;SDS011;10938;44.794;-0.676;2023-05-10T02:36:41;10.00;;;2.28;;
21554;SDS011;10938;44.794;-0.676;2023-05-10T02:39:07;15.52;;;2.15;;
21554;SDS011;10938;44.794;-0.676;2023-05-10T02:41:35;15.05;;;2.70;;
21554;SDS011;10938;44.794;-0.676;2023-05-10T02:44:01;15.60;;;2.80;;
21554;SDS011;10938;44.794;-0.676;2023-05-10T02:46:28;13.05;;;2.80;;
21554;SDS011;10938;44.794;-0.676;2023-05-10T02:48:53;13.35;;;2.55;;
21554;SDS011;10938;44.794;-0.676;2023-05-10T02:51:19;14.95;;;3.20;;
21554;SDS011;10938;44.794;-0.676;2023-05-10T02:53:46;11.43;;;2.47;;
21554;SDS011;10938;44.794;-0.676;2023-05-10T02:56:13;10.18;;;2.35;;
21554;SDS011;10938;44.794;-0.676;2023-05-10T02:58:40;11.85;;;2.30;;
21554;SDS011;10938;44.794;-0.676;2023-05-10T03:01:05;12.18;;;2.83;;
21554;SDS011;10938;44.794;-0.676;2023-05-10T03:03:33;13.18;;;2.40;;
21554;SDS011;10938;44.794;-0.676;2023-05-10T03:05:59;13.57;;;2.10;;
21554;SDS011;10938;44.794;-0.676;2023-05-10T03:08:24;10.20;;;2.33;;
21554;SDS011;10938;44.794;-0.676;2023-05-10T03:10:54;16.38;;;2.90;;
21554;SDS011;10938;44.794;-0.676;2023-05-10T03:18:29;10.35;;;2.30;;
21554;SDS011;10938;44.794;-0.676;2023-05-10T03:20:59;13.63;;;3.15;;
21554;SDS011;10938;44.794;-0.676;2023-05-10T03:23:27;18.88;;;3.30;;
21554;SDS011;10938;44.794;-0.676;2023-05-10T03:25:52;11.93;;;2.40;;
21554;SDS011;10938;44.794;-0.676;2023-05-10T03:28:18;8.00;;;2.22;;
21554;SDS011;10938;44.794;-0.676;2023-05-10T03:30:43;12.15;;;2.35;;
21554;SDS011;10938;44.794;-0.676;2023-05-10T03:33:10;9.43;;;2.25;;
21554;SDS011;10938;44.794;-0.676;2023-05-10T03:35:35;16.80;;;2.47;;
21554;SDS011;10938;44.794;-0.676;2023-05-10T03:38:01;13.10;;;2.42;;
21554;SDS011;10938;44.794;-0.676;2023-05-10T03:40:27;10.65;;;2.40;;
21554;SDS011;10938;44.794;-0.676;2023-05-10T03:42:57;7.70;;;2.03;;
21554;SDS011;10938;44.794;-0.676;2023-05-10T03:45:22;10.43;;;2.53;;
21554;SDS011;10938;44.794;-0.676;2023-05-10T03:47:48;16.35;;;2.63;;
21554;SDS011;10938;44.794;-0.676;2023-05-10T03:50:13;10.77;;;2.23;;
21554;SDS011;10938;44.794;-0.676;2023-05-10T03:52:38;14.90;;;2.83;;
21554;SDS011;10938;44.794;-0.676;2023-05-10T03:55:06;13.02;;;2.65;;
21554;SDS011;10938;44.794;-0.676;2023-05-10T03:57:32;9.55;;;2.47;;
21554;SDS011;10938;44.794;-0.676;2023-05-10T03:59:57;9.50;;;2.28;;
21554;SDS011;10938;44.794;-0.676;2023-05-10T04:02:23;11.23;;;2.23;;
21554;SDS011;10938;44.794;-0.676;2023-05-10T04:04:48;11.68;;;2.38;;
21554;SDS011;10938;44.794;-0.676;2023-05-10T04:07:13;12.63;;;2.78;;
21554;SDS011;10938;44.794;-0.676;2023-05-10T04:09:39;11.88;;;2.30;;
21554;SDS011;10938;44.794;-0.676;2023-05-10T04:12:05;13.43;;;3.65;;
21554;SDS011;10938;44.794;-0.676;2023-05-10T04:14:30;15.93;;;2.50;;
21554;SDS011;10938;44.794;-0.676;2023-05-10T04:16:56;11.07;;;2.33;;
21554;SDS011;10938;44.794;-0.676;2023-05-10T04:19:21;10.63;;;1.90;;
21554;SDS011;10938;44.794;-0.676;2023-05-10T04:21:46;7.10;;;2.20;;
21554;SDS011;10938;44.794;-0.676;2023-05-10T04:24:12;8.65;;;2.10;;
21554;SDS011;10938;44.794;-0.676;2023-05-10T04:26:37;9.40;;;2.27;;
21554;SDS011;10938;44.794;-0.676;2023-05-10T04:29:02;8.03;;;1.83;;
21554;SDS011;10938;44.794;-0.676;2023-05-10T04:31:27;10.97;;;2.60;;
21554;SDS011;10938;44.794;-0.676;2023-05-10T04:33:53;16.90;;;3.20;;
21554;SDS011;10938;44.794;-0.676;2023-05-10T04:36:18;12.20;;;2.70;;
21554;SDS011;10938;44.794;-0.676;2023-05-10T04:38:43;14.18;;;2.80;;
21554;SDS011;10938;44.794;-0.676;2023-05-10T04:41:09;12.38;;;2.35;;
21554;SDS011;10938;44.794;-0.676;2023-05-10T04:43:35;9.30;;;2.38;;
21554;SDS011;10938;44.794;-0.676;2023-05-10T04:46:01;17.73;;;3.50;;
21554;SDS011;10938;44.794;-0.676;2023-05-10T04:48:26;18.15;;;3.17;;
21554;SDS011;10938;44.794;-0.676;2023-05-10T04:50:52;14.25;;;2.63;;
21554;SDS011;10938;44.794;-0.676;2023-05-10T04:53:17;13.85;;;2.92;;
21554;SDS011;10938;44.794;-0.676;2023-05-10T04:55:42;17.80;;;2.77;;
21554;SDS011;10938;44.794;-0.676;2023-05-10T04:58:07;15.63;;;3.15;;
21554;SDS011;10938;44.794;-0.676;2023-05-10T05:00:33;12.77;;;2.67;;
21554;SDS011;10938;44.794;-0.676;2023-05-10T05:02:58;13.55;;;2.35;;
21554;SDS011;10938;44.794;-0.676;2023-05-10T05:05:24;10.60;;;2.42;;
21554;SDS011;10938;44.794;-0.676;2023-05-10T05:07:49;11.50;;;2.80;;
21554;SDS011;10938;44.794;-0.676;2023-05-10T05:10:17;12.75;;;2.63;;
21554;SDS011;10938;44.794;-0.676;2023-05-10T05:12:43;14.05;;;2.55;;
21554;SDS011;10938;44.794;-0.676;2023-05-10T05:15:08;17.73;;;3.20;;
21554;SDS011;10938;44.794;-0.676;2023-05-10T05:17:34;11.77;;;2.30;;
21554;SDS011;10938;44.794;-0.676;2023-05-10T05:20:00;9.27;;;1.80;;
21554;SDS011;10938;44.794;-0.676;2023-05-10T05:22:25;13.10;;;2.30;;
21554;SDS011;10938;44.794;-0.676;2023-05-10T05:24:56;13.27;;;2.88;;
21554;SDS011;10938;44.794;-0.676;2023-05-10T05:27:22;13.35;;;2.70;;
21554;SDS011;10938;44.794;-0.676;2023-05-10T05:29:49;11.25;;;2.72;;
21554;SDS011;10938;44.794;-0.676;2023-05-10T05:32:15;11.55;;;2.90;;
21554;SDS011;10938;44.794;-0.676;2023-05-10T05:34:40;17.20;;;2.77;;
21554;SDS011;10938;44.794;-0.676;2023-05-10T05:37:05;9.90;;;2.03;;
21554;SDS011;10938;44.794;-0.676;2023-05-10T05:39:31;15.27;;;2.80;;
21554;SDS011;10938;44.794;-0.676;2023-05-10T05:41:56;8.27;;;1.93;;
21554;SDS011;10938;44.794;-0.676;2023-05-10T05:44:21;11.07;;;2.40;;
21554;SDS011;10938;44.794;-0.676;2023-05-10T05:46:46;11.10;;;2.80;;
21554;SDS011;10938;44.794;-0.676;2023-05-10T05:49:12;11.45;;;2.42;;
21554;SDS011;10938;44.794;-0.676;2023-05-10T05:51:37;12.00;;;2.33;;
21554;SDS011;10938;44.794;-0.676;2023-05-10T05:54:02;12.70;;;2.85;;
21554;SDS011;10938;44.794;-0.676;2023-05-10T05:56:29;12.82;;;3.13;;
21554;SDS011;10938;44.794;-0.676;2023-05-10T05:58:54;11.13;;;2.42;;
21554;SDS011;10938;44.794;-0.676;2023-05-10T06:01:20;9.93;;;2.53;;
21554;SDS011;10938;44.794;-0.676;2023-05-10T06:03:45;10.70;;;2.35;;
21554;SDS011;10938;44.794;-0.676;2023-05-10T06:06:10;14.50;;;2.47;;
21554;SDS011;10938;44.794;-0.676;2023-05-10T06:08:36;11.68;;;2.95;;
21554;SDS011;10938;44.794;-0.676;2023-05-10T06:11:01;9.77;;;2.40;;
21554;SDS011;10938;44.794;-0.676;2023-05-10T06:13:26;9.60;;;2.27;;
21554;SDS011;10938;44.794;-0.676;2023-05-10T06:15:57;12.30;;;2.72;;
21554;SDS011;10938;44.794;-0.676;2023-05-10T06:18:23;13.60;;;2.63;;
21554;SDS011;10938;44.794;-0.676;2023-05-10T06:20:49;12.38;;;2.58;;
21554;SDS011;10938;44.794;-0.676;2023-05-10T06:23:14;8.57;;;2.58;;
21554;SDS011;10938;44.794;-0.676;2023-05-10T06:25:40;11.02;;;2.60;;
21554;SDS011;10938;44.794;-0.676;2023-05-10T06:28:05;11.52;;;2.85;;
21554;SDS011;10938;44.794;-0.676;2023-05-10T06:30:31;12.05;;;2.42;;
21554;SDS011;10938;44.794;-0.676;2023-05-10T06:32:56;11.67;;;2.60;;
21554;SDS011;10938;44.794;-0.676;2023-05-10T06:35:21;14.00;;;3.22;;
21554;SDS011;10938;44.794;-0.676;2023-05-10T06:37:47;11.23;;;2.53;;
21554;SDS011;10938;44.794;-0.676;2023-05-10T06:40:12;12.85;;;2.97;;
21554;SDS011;10938;44.794;-0.676;2023-05-10T06:42:37;12.68;;;2.40;;
21554;SDS011;10938;44.794;-0.676;2023-05-10T06:45:03;10.47;;;2.53;;
21554;SDS011;10938;44.794;-0.676;2023-05-10T06:47:28;13.07;;;2.58;;
21554;SDS011;10938;44.794;-0.676;2023-05-10T06:49:53;6.43;;;1.90;;
21554;SDS011;10938;44.794;-0.676;2023-05-10T06:52:19;9.52;;;2.30;;
21554;SDS011;10938;44.794;-0.676;2023-05-10T06:54:44;5.57;;;1.83;;
21554;SDS011;10938;44.794;-0.676;2023-05-10T06:57:10;6.05;;;2.03;;
21554;SDS011;10938;44.794;-0.676;2023-05-10T06:59:35;8.73;;;2.47;;
21554;SDS011;10938;44.794;-0.676;2023-05-10T07:02:01;8.40;;;2.40;;
21554;SDS011;10938;44.794;-0.676;2023-05-10T07:04:26;7.83;;;2.80;;
21554;SDS011;10938;44.794;-0.676;2023-05-10T07:06:52;7.93;;;2.63;;
21554;SDS011;10938;44.794;-0.676;2023-05-10T07:09:18;7.53;;;2.80;;
21554;SDS011;10938;44.794;-0.676;2023-05-10T07:11:43;9.23;;;3.00;;
21554;SDS011;10938;44.794;-0.676;2023-05-10T07:14:08;11.23;;;3.00;;
21554;SDS011;10938;44.794;-0.676;2023-05-10T07:16:34;6.90;;;2.23;;
21554;SDS011;10938;44.794;-0.676;2023-05-10T07:18:59;7.07;;;2.70;;
21554;SDS011;10938;44.794;-0.676;2023-05-10T07:21:24;11.23;;;2.43;;
21554;SDS011;10938;44.794;-0.676;2023-05-10T07:23:49;6.40;;;2.33;;
21554;SDS011;10938;44.794;-0.676;2023-05-10T07:26:15;8.82;;;2.78;;
21554;SDS011;10938;44.794;-0.676;2023-05-10T07:28:41;5.82;;;2.42;;
21554;SDS011;10938;44.794;-0.676;2023-05-10T07:31:06;6.93;;;2.60;;
21554;SDS011;10938;44.794;-0.676;2023-05-10T07:33:31;8.17;;;2.60;;
21554;SDS011;10938;44.794;-0.676;2023-05-10T07:35:57;10.38;;;2.55;;
21554;SDS011;10938;44.794;-0.676;2023-05-10T07:38:22;9.57;;;2.55;;
21554;SDS011;10938;44.794;-0.676;2023-05-10T07:40:48;9.85;;;2.33;;
21554;SDS011;10938;44.794;-0.676;2023-05-10T07:43:13;8.23;;;2.57;;
21554;SDS011;10938;44.794;-0.676;2023-05-10T07:45:39;7.50;;;2.35;;
21554;SDS011;10938;44.794;-0.676;2023-05-10T07:48:04;8.90;;;2.57;;
21554;SDS011;10938;44.794;-0.676;2023-05-10T07:50:29;10.93;;;2.15;;
21554;SDS011;10938;44.794;-0.676;2023-05-10T07:52:55;6.60;;;2.25;;
21554;SDS011;10938;44.794;-0.676;2023-05-10T07:55:20;7.97;;;2.67;;
21554;SDS011;10938;44.794;-0.676;2023-05-10T07:57:48;8.73;;;2.70;;
21554;SDS011;10938;44.794;-0.676;2023-05-10T08:00:14;10.33;;;3.10;;
21554;SDS011;10938;44.794;-0.676;2023-05-10T08:02:42;11.90;;;2.92;;
21554;SDS011;10938;44.794;-0.676;2023-05-10T08:05:07;8.25;;;3.13;;
21554;SDS011;10938;44.794;-0.676;2023-05-10T08:07:33;8.50;;;2.85;;
21554;SDS011;10938;44.794;-0.676;2023-05-10T08:09:58;9.77;;;2.97;;
21554;SDS011;10938;44.794;-0.676;2023-05-10T08:12:23;12.20;;;3.30;;
21554;SDS011;10938;44.794;-0.676;2023-05-10T08:14:49;14.33;;;3.50;;
21554;SDS011;10938;44.794;-0.676;2023-05-10T08:17:14;10.35;;;3.13;;
21554;SDS011;10938;44.794;-0.676;2023-05-10T08:19:39;12.90;;;3.77;;
21554;SDS011;10938;44.794;-0.676;2023-05-10T08:22:05;8.67;;;2.97;;
21554;SDS011;10938;44.794;-0.676;2023-05-10T08:24:30;10.97;;;3.00;;
21554;SDS011;10938;44.794;-0.676;2023-05-10T08:26:55;11.00;;;3.40;;
21554;SDS011;10938;44.794;-0.676;2023-05-10T08:29:21;11.07;;;3.03;;
21554;SDS011;10938;44.794;-0.676;2023-05-10T08:31:46;7.57;;;2.57;;
21554;SDS011;10938;44.794;-0.676;2023-05-10T08:34:11;10.33;;;2.87;;
21554;SDS011;10938;44.794;-0.676;2023-05-10T08:36:38;17.33;;;3.10;;
21554;SDS011;10938;44.794;-0.676;2023-05-10T08:39:03;10.85;;;2.70;;
21554;SDS011;10938;44.794;-0.676;2023-05-10T08:41:29;10.05;;;2.55;;
21554;SDS011;10938;44.794;-0.676;2023-05-10T08:43:55;9.70;;;2.65;;
21554;SDS011;10938;44.794;-0.676;2023-05-10T08:46:21;8.40;;;2.20;;
21554;SDS011;10938;44.794;-0.676;2023-05-10T08:48:50;8.40;;;2.42;;
21554;SDS011;10938;44.794;-0.676;2023-05-10T08:51:22;8.00;;;2.30;;
21554;SDS011;10938;44.794;-0.676;2023-05-10T08:53:48;12.80;;;2.50;;
21554;SDS011;10938;44.794;-0.676;2023-05-10T08:56:15;8.77;;;2.22;;
21554;SDS011;10938;44.794;-0.676;2023-05-10T08:58:40;9.18;;;2.25;;
21554;SDS011;10938;44.794;-0.676;2023-05-10T09:01:06;8.07;;;2.25;;
21554;SDS011;10938;44.794;-0.676;2023-05-10T09:03:32;7.90;;;2.60;;
21554;SDS011;10938;44.794;-0.676;2023-05-10T09:05:57;9.23;;;2.17;;
21554;SDS011;10938;44.794;-0.676;2023-05-10T09:08:23;7.15;;;2.08;;
21554;SDS011;10938;44.794;-0.676;2023-05-10T09:10:52;9.95;;;2.50;;
21554;SDS011;10938;44.794;-0.676;2023-05-10T09:13:18;9.23;;;2.50;;
21554;SDS011;10938;44.794;-0.676;2023-05-10T09:15:44;8.48;;;2.30;;
21554;SDS011;10938;44.794;-0.676;2023-05-10T09:18:10;7.72;;;2.42;;
21554;SDS011;10938;44.794;-0.676;2023-05-10T09:20:35;10.40;;;2.90;;
21554;SDS011;10938;44.794;-0.676;2023-05-10T09:23:00;7.40;;;2.50;;
21554;SDS011;10938;44.794;-0.676;2023-05-10T09:25:26;10.33;;;3.37;;
21554;SDS011;10938;44.794;-0.676;2023-05-10T09:27:52;10.70;;;3.45;;
21554;SDS011;10938;44.794;-0.676;2023-05-10T09:32:47;8.52;;;2.47;;
21554;SDS011;10938;44.794;-0.676;2023-05-10T09:35:14;10.35;;;2.58;;
21554;SDS011;10938;44.794;-0.676;2023-05-10T09:37:41;6.80;;;2.55;;
21554;SDS011;10938;44.794;-0.676;2023-05-10T09:40:16;6.85;;;1.80;;
21554;SDS011;10938;44.794;-0.676;2023-05-10T09:42:42;6.88;;;2.25;;
21554;SDS011;10938;44.794;-0.676;2023-05-10T09:45:08;6.35;;;1.73;;
21554;SDS011;10938;44.794;-0.676;2023-05-10T09:47:34;8.70;;;2.10;;
21554;SDS011;10938;44.794;-0.676;2023-05-10T09:50:00;6.38;;;1.90;;
21554;SDS011;10938;44.794;-0.676;2023-05-10T09:52:33;7.43;;;1.98;;
21554;SDS011;10938;44.794;-0.676;2023-05-10T09:55:10;8.82;;;1.95;;
21554;SDS011;10938;44.794;-0.676;2023-05-10T09:57:35;7.20;;;1.73;;
21554;SDS011;10938;44.794;-0.676;2023-05-10T10:00:01;8.93;;;1.80;;
21554;SDS011;10938;44.794;-0.676;2023-05-10T10:02:28;8.18;;;2.25;;
21554;SDS011;10938;44.794;-0.676;2023-05-10T10:04:54;9.27;;;2.10;;
21554;SDS011;10938;44.794;-0.676;2023-05-10T10:07:21;8.98;;;1.98;;
21554;SDS011;10938;44.794;-0.676;2023-05-10T10:09:47;11.30;;;2.38;;
21554;SDS011;10938;44.794;-0.676;2023-05-10T10:12:12;14.37;;;2.73;;
21554;SDS011;10938;44.794;-0.676;2023-05-10T10:14:38;9.77;;;2.55;;
21554;SDS011;10938;44.794;-0.676;2023-05-10T10:17:03;14.02;;;2.95;;
21554;SDS011;10938;44.794;-0.676;2023-05-10T10:19:28;7.50;;;2.07;;
21554;SDS011;10938;44.794;-0.676;2023-05-10T10:21:55;5.85;;;1.55;;
21554;SDS011;10938;44.794;-0.676;2023-05-10T10:24:20;5.77;;;1.30;;
21554;SDS011;10938;44.794;-0.676;2023-05-10T10:26:45;4.80;;;1.40;;
21554;SDS011;10938;44.794;-0.676;2023-05-10T10:31:45;7.27;;;1.90;;
21554;SDS011;10938;44.794;-0.676;2023-05-10T10:34:18;8.98;;;2.00;;
21554;SDS011;10938;44.794;-0.676;2023-05-10T10:36:46;5.63;;;1.70;;
21554;SDS011;10938;44.794;-0.676;2023-05-10T10:39:12;8.07;;;2.05;;
21554;SDS011;10938;44.794;-0.676;2023-05-10T10:41:38;6.63;;;1.90;;
21554;SDS011;10938;44.794;-0.676;2023-05-10T10:49:24;8.63;;;2.10;;
21554;SDS011;10938;44.794;-0.676;2023-05-10T10:54:33;5.03;;;1.40;;
21554;SDS011;10938;44.794;-0.676;2023-05-10T10:57:12;4.07;;;1.10;;
21554;SDS011;10938;44.794;-0.676;2023-05-10T10:59:41;4.38;;;1.15;;
21554;SDS011;10938;44.794;-0.676;2023-05-10T11:02:07;5.72;;;1.52;;
21554;SDS011;10938;44.794;-0.676;2023-05-10T11:04:41;3.37;;;0.90;;
21554;SDS011;10938;44.794;-0.676;2023-05-10T11:07:16;5.43;;;1.40;;
21554;SDS011;10938;44.794;-0.676;2023-05-10T11:12:08;4.22;;;1.08;;
21554;SDS011;10938;44.794;-0.676;2023-05-10T11:14:33;4.95;;;1.40;;
21554;SDS011;10938;44.794;-0.676;2023-05-10T11:16:58;5.43;;;1.20;;
21554;SDS011;10938;44.794;-0.676;2023-05-10T11:19:27;4.43;;;1.45;;
21554;SDS011;10938;44.794;-0.676;2023-05-10T11:24:31;3.50;;;1.10;;
21554;SDS011;10938;44.794;-0.676;2023-05-10T11:26:56;5.10;;;1.00;;
21554;SDS011;10938;44.794;-0.676;2023-05-10T11:29:22;7.07;;;1.30;;
21554;SDS011;10938;44.794;-0.676;2023-05-10T11:31:47;3.22;;;1.27;;
21554;SDS011;10938;44.794;-0.676;2023-05-10T11:34:23;4.07;;;1.20;;
21554;SDS011;10938;44.794;-0.676;2023-05-10T11:36:52;4.78;;;1.38;;
21554;SDS011;10938;44.794;-0.676;2023-05-10T11:39:19;4.57;;;1.55;;
21554;SDS011;10938;44.794;-0.676;2023-05-10T11:41:46;5.38;;;1.63;;
21554;SDS011;10938;44.794;-0.676;2023-05-10T11:44:12;5.53;;;1.33;;
21554;SDS011;10938;44.794;-0.676;2023-05-10T11:46:37;6.33;;;1.63;;
21554;SDS011;10938;44.794;-0.676;2023-05-10T11:49:02;4.73;;;1.40;;
21554;SDS011;10938;44.794;-0.676;2023-05-10T11:51:32;6.72;;;1.65;;
21554;SDS011;10938;44.794;-0.676;2023-05-10T11:53:58;4.70;;;1.67;;
21554;SDS011;10938;44.794;-0.676;2023-05-10T11:56:23;5.13;;;1.90;;
21554;SDS011;10938;44.794;-0.676;2023-05-10T11:58:53;7.72;;;1.52;;
21554;SDS011;10938;44.794;-0.676;2023-05-10T12:01:20;6.60;;;1.67;;
21554;SDS011;10938;44.794;-0.676;2023-05-10T12:03:46;7.85;;;1.77;;
21554;SDS011;10938;44.794;-0.676;2023-05-10T12:06:11;7.18;;;2.05;;
21554;SDS011;10938;44.794;-0.676;2023-05-10T12:08:36;5.97;;;1.83;;
21554;SDS011;10938;44.794;-0.676;2023-05-10T12:11:09;4.05;;;1.65;;
21554;SDS011;10938;44.794;-0.676;2023-05-10T12:13:40;7.20;;;1.60;;
21554;SDS011;10938;44.794;-0.676;2023-05-10T12:16:19;8.10;;;1.60;;
21554;SDS011;10938;44.794;-0.676;2023-05-10T12:18:44;3.95;;;1.50;;
21554;SDS011;10938;44.794;-0.676;2023-05-10T12:21:10;8.93;;;2.58;;
21554;SDS011;10938;44.794;-0.676;2023-05-10T12:23:37;8.93;;;2.28;;
21554;SDS011;10938;44.794;-0.676;2023-05-10T12:26:02;7.40;;;2.10;;
21554;SDS011;10938;44.794;-0.676;2023-05-10T12:28:29;7.43;;;1.95;;
21554;SDS011;10938;44.794;-0.676;2023-05-10T12:30:55;7.80;;;1.70;;
21554;SDS011;10938;44.794;-0.676;2023-05-10T12:33:22;7.13;;;2.10;;
21554;SDS011;10938;44.794;-0.676;2023-05-10T12:35:48;11.87;;;1.67;;
21554;SDS011;10938;44.794;-0.676;2023-05-10T12:38:29;8.40;;;1.95;;
21554;SDS011;10938;44.794;-0.676;2023-05-10T12:40:57;6.28;;;1.80;;
21554;SDS011;10938;44.794;-0.676;2023-05-10T12:43:23;8.25;;;1.83;;
21554;SDS011;10938;44.794;-0.676;2023-05-10T12:45:48;9.10;;;1.70;;
21554;SDS011;10938;44.794;-0.676;2023-05-10T12:48:14;9.45;;;1.85;;
21554;SDS011;10938;44.794;-0.676;2023-05-10T12:50:39;9.43;;;2.33;;
21554;SDS011;10938;44.794;-0.676;2023-05-10T12:53:04;7.47;;;1.90;;
21554;SDS011;10938;44.794;-0.676;2023-05-10T12:55:30;9.70;;;1.80;;
21554;SDS011;10938;44.794;-0.676;2023-05-10T12:57:55;7.97;;;2.03;;
21554;SDS011;10938;44.794;-0.676;2023-05-10T13:00:20;8.73;;;2.00;;
21554;SDS011;10938;44.794;-0.676;2023-05-10T13:02:46;9.95;;;2.28;;
21554;SDS011;10938;44.794;-0.676;2023-05-10T13:05:11;9.60;;;2.00;;
21554;SDS011;10938;44.794;-0.676;2023-05-10T13:07:46;13.30;;;2.83;;
21554;SDS011;10938;44.794;-0.676;2023-05-10T13:10:11;9.82;;;1.98;;
21554;SDS011;10938;44.794;-0.676;2023-05-10T13:12:37;8.23;;;2.38;;
21554;SDS011;10938;44.794;-0.676;2023-05-10T13:15:02;10.25;;;2.08;;
21554;SDS011;10938;44.794;-0.676;2023-05-10T13:17:28;8.43;;;2.05;;
21554;SDS011;10938;44.794;-0.676;2023-05-10T13:19:54;8.52;;;2.40;;
21554;SDS011;10938;44.794;-0.676;2023-05-10T13:22:19;16.15;;;2.03;;
21554;SDS011;10938;44.794;-0.676;2023-05-10T13:24:44;10.38;;;2.10;;
21554;SDS011;10938;44.794;-0.676;2023-05-10T13:27:10;7.38;;;2.00;;
21554;SDS011;10938;44.794;-0.676;2023-05-10T13:29:35;7.90;;;1.83;;
21554;SDS011;10938;44.794;-0.676;2023-05-10T13:32:00;9.10;;;1.93;;
21554;SDS011;10938;44.794;-0.676;2023-05-10T13:34:26;9.17;;;2.33;;
21554;SDS011;10938;44.794;-0.676;2023-05-10T13:36:51;11.93;;;2.70;;
21554;SDS011;10938;44.794;-0.676;2023-05-10T13:39:17;13.65;;;3.10;;
21554;SDS011;10938;44.794;-0.676;2023-05-10T13:41:43;12.00;;;2.50;;
21554;SDS011;10938;44.794;-0.676;2023-05-10T13:44:08;10.73;;;2.00;;
21554;SDS011;10938;44.794;-0.676;2023-05-10T13:46:34;11.13;;;2.65;;
21554;SDS011;10938;44.794;-0.676;2023-05-10T13:49:03;8.68;;;1.83;;
21554;SDS011;10938;44.794;-0.676;2023-05-10T13:51:28;6.87;;;1.70;;
21554;SDS011;10938;44.794;-0.676;2023-05-10T13:53:54;8.02;;;1.90;;
21554;SDS011;10938;44.794;-0.676;2023-05-10T13:56:19;9.30;;;1.93;;
21554;SDS011;10938;44.794;-0.676;2023-05-10T13:58:44;6.33;;;1.80;;
21554;SDS011;10938;44.794;-0.676;2023-05-10T14:01:09;8.97;;;2.17;;
21554;SDS011;10938;44.794;-0.676;2023-05-10T14:03:36;8.63;;;1.80;;
21554;SDS011;10938;44.794;-0.676;2023-05-10T14:06:02;11.15;;;1.98;;
21554;SDS011;10938;44.794;-0.676;2023-05-10T14:08:27;9.45;;;1.92;;
21554;SDS011;10938;44.794;-0.676;2023-05-10T14:10:53;6.90;;;1.60;;
21554;SDS011;10938;44.794;-0.676;2023-05-10T14:13:18;9.05;;;1.95;;
21554;SDS011;10938;44.794;-0.676;2023-05-10T14:15:44;9.20;;;2.00;;
21554;SDS011;10938;44.794;-0.676;2023-05-10T14:18:09;7.97;;;2.15;;
21554;SDS011;10938;44.794;-0.676;2023-05-10T14:20:34;9.77;;;1.97;;
21554;SDS011;10938;44.794;-0.676;2023-05-10T14:23:00;12.02;;;2.20;;
21554;SDS011;10938;44.794;-0.676;2023-05-10T14:25:26;8.02;;;2.05;;
21554;SDS011;10938;44.794;-0.676;2023-05-10T14:27:51;7.57;;;2.03;;
21554;SDS011;10938;44.794;-0.676;2023-05-10T14:30:19;8.48;;;2.42;;
21554;SDS011;10938;44.794;-0.676;2023-05-10T14:32:44;10.13;;;2.15;;
21554;SDS011;10938;44.794;-0.676;2023-05-10T14:35:10;8.07;;;2.07;;
21554;SDS011;10938;44.794;-0.676;2023-05-10T14:37:35;5.93;;;1.45;;
21554;SDS011;10938;44.794;-0.676;2023-05-10T14:40:01;10.05;;;1.67;;
21554;SDS011;10938;44.794;-0.676;2023-05-10T14:42:29;6.50;;;1.75;;
21554;SDS011;10938;44.794;-0.676;2023-05-10T14:44:54;8.43;;;1.90;;
21554;SDS011;10938;44.794;-0.676;2023-05-10T14:47:19;9.37;;;1.90;;
21554;SDS011;10938;44.794;-0.676;2023-05-10T14:49:45;12.60;;;2.30;;
21554;SDS011;10938;44.794;-0.676;2023-05-10T14:52:10;7.18;;;1.90;;
21554;SDS011;10938;44.794;-0.676;2023-05-10T14:54:37;9.15;;;2.00;;
21554;SDS011;10938;44.794;-0.676;2023-05-10T14:57:02;6.05;;;1.98;;
21554;SDS011;10938;44.794;-0.676;2023-05-10T14:59:27;8.00;;;1.40;;
21554;SDS011;10938;44.794;-0.676;2023-05-10T15:01:52;5.63;;;1.60;;
21554;SDS011;10938;44.794;-0.676;2023-05-10T15:04:18;6.55;;;1.80;;
21554;SDS011;10938;44.794;-0.676;2023-05-10T15:06:43;8.70;;;2.20;;